Time,TemperatureF,DewpointF,PressureIn,WindDirection,WindDirectionDegrees,WindSpeedMPH,WindSpeedGustMPH,Humidity,HourlyPrecipIn,Conditions,Clouds,dailyrainin,SoftwareType,DateUTC
2013-08-09 00:01:00,72.4,67.3,29.89,SW,228,0.0,0.0,84,0.00,,,0.00,WeatherCatV1.21B27,2013-08-09 04:01:00,
2013-08-09 00:05:00,72.3,67.2,29.89,SW,227,0.0,0.0,84,0.00,,,0.00,WeatherCatV1.21B27,2013-08-09 04:05:00,
2013-08-09 00:06:00,72.3,67.2,29.89,SW,227,0.0,0.0,84,0.00,,,0.00,WeatherCatV1.21B27,2013-08-09 04:06:00,
2013-08-09 00:08:00,72.3,67.2,29.89,SW,228,0.0,0.0,84,0.00,,,0.00,WeatherCatV1.21B27,2013-08-09 04:08:00,
2013-08-09 00:13:00,72.3,67.2,29.89,SW,227,0.0,0.0,84,0.00,,,0.00,WeatherCatV1.21B27,2013-08-09 04:13:00,
2013-08-09 00:18:00,72.3,67.2,29.89,SW,228,0.0,0.0,84,0.00,,,0.00,WeatherCatV1.21B27,2013-08-09 04:18:00,
2013-08-09 00:23:00,72.4,66.9,29.89,SW,228,0.0,0.0,83,0.00,,,0.00,WeatherCatV1.21B27,2013-08-09 04:23:00,
2013-08-09 00:28:00,72.4,66.9,29.89,West,281,2.0,4.0,83,0.00,,,0.00,WeatherCatV1.21B27,2013-08-09 04:28:00,
2013-08-09 00:33:00,72.4,66.9,29.89,West,277,0.0,0.0,83,0.00,,,0.00,WeatherCatV1.21B27,2013-08-09 04:33:00,
2013-08-09 00:38:00,72.3,66.8,29.89,WSW,254,1.0,2.0,83,0.00,,,0.00,WeatherCatV1.21B27,2013-08-09 04:38:00,
2013-08-09 00:43:00,72.2,66.7,29.89,WSW,243,0.0,0.0,83,0.00,,,0.00,WeatherCatV1.21B27,2013-08-09 04:43:00,
2013-08-09 00:48:00,72.0,66.5,29.89,WSW,242,1.0,2.0,83,0.00,,,0.00,WeatherCatV1.21B27,2013-08-09 04:48:00,
2013-08-09 00:53:00,71.9,66.4,29.89,SW,223,0.0,3.0,83,0.00,,,0.00,WeatherCatV1.21B27,2013-08-09 04:53:00,
2013-08-09 00:59:00,71.6,66.5,29.88,WSW,242,1.0,1.0,84,0.00,,,0.00,WeatherCatV1.21B27,2013-08-09 04:59:00,
2013-08-09 01:04:00,71.4,66.3,29.88,WSW,242,1.0,2.0,84,0.00,,,0.00,WeatherCatV1.21B27,2013-08-09 05:04:00,
2013-08-09 01:09:00,71.2,66.1,29.89,SW,219,0.0,1.0,84,0.00,,,0.00,WeatherCatV1.21B27,2013-08-09 05:09:00,
2013-08-09 01:14:00,71.1,66.3,29.88,SW,221,0.0,0.0,85,0.00,,,0.00,WeatherCatV1.21B27,2013-08-09 05:14:00,
2013-08-09 01:19:00,71.0,66.2,29.88,SW,221,0.0,0.0,85,0.00,,,0.00,WeatherCatV1.21B27,2013-08-09 05:19:00,
2013-08-09 01:24:00,71.0,66.6,29.88,SW,221,0.0,0.0,86,0.00,,,0.00,WeatherCatV1.21B27,2013-08-09 05:24:00,
2013-08-09 01:29:00,70.8,66.4,29.88,WSW,252,1.0,3.0,86,0.00,,,0.00,WeatherCatV1.21B27,2013-08-09 05:29:00,
2013-08-09 01:34:00,70.7,66.3,29.88,WSW,246,3.0,3.0,86,0.00,,,0.00,WeatherCatV1.21B27,2013-08-09 05:34:00,
2013-08-09 01:39:00,70.6,66.2,29.87,SW,234,0.0,5.0,86,0.00,,,0.00,WeatherCatV1.21B27,2013-08-09 05:39:00,
2013-08-09 01:44:00,70.5,66.1,29.88,SW,234,0.0,0.0,86,0.00,,,0.00,WeatherCatV1.21B27,2013-08-09 05:44:00,
2013-08-09 01:49:00,70.5,66.4,29.88,WSW,248,2.0,4.0,87,0.00,,,0.00,WeatherCatV1.21B27,2013-08-09 05:49:00,
2013-08-09 01:54:00,70.4,66.3,29.88,WSW,248,0.0,3.0,87,0.00,,,0.00,WeatherCatV1.21B27,2013-08-09 05:54:00,
2013-08-09 01:59:00,70.4,66.3,29.88,SW,223,0.0,2.0,87,0.00,,,0.00,WeatherCatV1.21B27,2013-08-09 05:59:00,
2013-08-09 02:04:00,70.4,66.7,29.88,SW,222,0.0,0.0,88,0.00,,,0.00,WeatherCatV1.21B27,2013-08-09 06:04:00,
2013-08-09 02:09:00,70.5,66.8,29.88,SW,221,3.0,3.0,88,0.00,,,0.00,WeatherCatV1.21B27,2013-08-09 06:09:00,
2013-08-09 02:14:00,70.5,66.8,29.88,SW,221,0.0,0.0,88,0.00,,,0.00,WeatherCatV1.21B27,2013-08-09 06:14:00,
2013-08-09 02:19:00,70.4,66.7,29.88,SW,221,0.0,0.0,88,0.00,,,0.00,WeatherCatV1.21B27,2013-08-09 06:19:00,
2013-08-09 02:24:00,70.4,66.7,29.88,SW,221,0.0,0.0,88,0.00,,,0.00,WeatherCatV1.21B27,2013-08-09 06:24:00,
2013-08-09 02:29:00,70.5,66.4,29.87,WSW,252,4.0,4.0,87,0.00,,,0.00,WeatherCatV1.21B27,2013-08-09 06:29:00,
2013-08-09 02:34:00,70.6,66.5,29.87,SW,235,3.0,4.0,87,0.00,,,0.00,WeatherCatV1.21B27,2013-08-09 06:34:00,
2013-08-09 02:39:00,70.6,66.5,29.87,SW,234,0.0,1.0,87,0.00,,,0.00,WeatherCatV1.21B27,2013-08-09 06:39:00,
2013-08-09 02:44:00,70.6,66.5,29.87,SW,234,0.0,0.0,87,0.00,,,0.00,WeatherCatV1.21B27,2013-08-09 06:44:00,
2013-08-09 02:49:00,70.6,66.5,29.87,SW,234,0.0,0.0,87,0.00,,,0.00,WeatherCatV1.21B27,2013-08-09 06:49:00,
2013-08-09 02:54:00,70.6,66.5,29.87,SW,234,0.0,0.0,87,0.00,,,0.00,WeatherCatV1.21B27,2013-08-09 06:54:00,
2013-08-09 02:59:00,70.5,66.4,29.87,SW,219,0.0,0.0,87,0.00,,,0.00,WeatherCatV1.21B27,2013-08-09 06:59:00,
2013-08-09 03:04:00,70.5,66.4,29.87,SW,219,0.0,0.0,87,0.00,,,0.00,WeatherCatV1.21B27,2013-08-09 07:04:00,
2013-08-09 03:09:00,70.5,66.4,29.87,WSW,237,3.0,3.0,87,0.00,,,0.00,WeatherCatV1.21B27,2013-08-09 07:09:00,
2013-08-09 03:14:00,70.4,66.3,29.87,WSW,238,0.0,0.0,87,0.00,,,0.00,WeatherCatV1.21B27,2013-08-09 07:14:00,
2013-08-09 03:19:00,70.3,66.2,29.87,WSW,238,0.0,0.0,87,0.00,,,0.00,WeatherCatV1.21B27,2013-08-09 07:19:00,
2013-08-09 03:24:00,70.3,66.2,29.87,WSW,238,0.0,0.0,87,0.00,,,0.00,WeatherCatV1.21B27,2013-08-09 07:24:00,
2013-08-09 03:29:00,70.4,66.3,29.88,SW,233,1.0,2.0,87,0.00,,,0.00,WeatherCatV1.21B27,2013-08-09 07:29:00,
2013-08-09 03:34:00,70.4,66.3,29.87,North,5,0.0,0.0,87,0.00,,,0.00,WeatherCatV1.21B27,2013-08-09 07:34:00,
2013-08-09 03:39:00,70.4,66.3,29.87,West,267,0.0,0.0,87,0.00,,,0.00,WeatherCatV1.21B27,2013-08-09 07:39:00,
2013-08-09 03:44:00,70.4,66.3,29.88,North,5,0.0,2.0,87,0.00,,,0.00,WeatherCatV1.21B27,2013-08-09 07:44:00,
2013-08-09 03:49:00,70.4,66.3,29.88,North,5,0.0,0.0,87,0.00,,,0.00,WeatherCatV1.21B27,2013-08-09 07:49:00,
2013-08-09 03:54:00,70.3,66.2,29.88,North,5,0.0,0.0,87,0.00,,,0.00,WeatherCatV1.21B27,2013-08-09 07:54:00,
2013-08-09 03:59:00,70.4,66.3,29.88,North,5,0.0,0.0,87,0.00,,,0.00,WeatherCatV1.21B27,2013-08-09 07:59:00,
2013-08-09 04:04:00,70.4,66.3,29.87,North,0,0.0,0.0,87,0.00,,,0.00,WeatherCatV1.21B27,2013-08-09 08:04:00,
2013-08-09 04:09:00,70.4,66.7,29.87,NE,44,0.0,0.0,88,0.00,,,0.00,WeatherCatV1.21B27,2013-08-09 08:09:00,
2013-08-09 04:14:00,70.4,66.7,29.87,NE,45,0.0,0.0,88,0.00,,,0.00,WeatherCatV1.21B27,2013-08-09 08:14:00,
2013-08-09 04:19:00,70.5,66.8,29.87,NE,45,0.0,0.0,88,0.00,,,0.00,WeatherCatV1.21B27,2013-08-09 08:19:00,
2013-08-09 04:24:00,70.5,66.8,29.86,NE,36,0.0,2.0,88,0.00,,,0.00,WeatherCatV1.21B27,2013-08-09 08:24:00,
2013-08-09 04:29:00,70.5,66.8,29.86,NNE,32,0.0,2.0,88,0.00,,,0.00,WeatherCatV1.21B27,2013-08-09 08:29:00,
2013-08-09 04:34:00,70.5,66.8,29.86,NNE,32,0.0,1.0,88,0.00,,,0.00,WeatherCatV1.21B27,2013-08-09 08:34:00,
2013-08-09 04:39:00,70.6,66.9,29.86,NNE,15,0.0,0.0,88,0.00,,,0.00,WeatherCatV1.21B27,2013-08-09 08:39:00,
2013-08-09 04:44:00,70.6,66.9,29.86,NNE,16,0.0,0.0,88,0.00,,,0.00,WeatherCatV1.21B27,2013-08-09 08:44:00,
2013-08-09 04:49:00,70.6,66.9,29.86,NE,39,0.0,0.0,88,0.00,,,0.00,WeatherCatV1.21B27,2013-08-09 08:49:00,
2013-08-09 04:54:00,70.7,67.0,29.85,NE,38,0.0,0.0,88,0.00,,,0.00,WeatherCatV1.21B27,2013-08-09 08:54:00,
2013-08-09 04:59:00,70.7,67.0,29.85,NE,46,1.0,2.0,88,0.00,,,0.00,WeatherCatV1.21B27,2013-08-09 08:59:00,
2013-08-09 05:04:00,70.7,67.0,29.86,NE,46,0.0,0.0,88,0.00,,,0.00,WeatherCatV1.21B27,2013-08-09 09:04:00,
2013-08-09 05:09:00,70.8,67.1,29.86,NE,46,0.0,2.0,88,0.00,,,0.00,WeatherCatV1.21B27,2013-08-09 09:09:00,
2013-08-09 05:14:00,70.8,67.1,29.86,NE,48,1.0,1.0,88,0.00,,,0.00,WeatherCatV1.21B27,2013-08-09 09:14:00,
2013-08-09 05:19:00,70.7,67.0,29.86,NE,48,0.0,0.0,88,0.00,,,0.00,WeatherCatV1.21B27,2013-08-09 09:19:00,
2013-08-09 05:24:00,70.8,67.1,29.86,NE,48,0.0,0.0,88,0.00,,,0.00,WeatherCatV1.21B27,2013-08-09 09:24:00,
2013-08-09 05:29:00,70.7,67.0,29.86,NNW,346,1.0,3.0,88,0.00,,,0.00,WeatherCatV1.21B27,2013-08-09 09:29:00,
2013-08-09 05:34:00,70.6,66.5,29.86,NNW,333,4.0,4.0,87,0.00,,,0.00,WeatherCatV1.21B27,2013-08-09 09:34:00,
2013-08-09 05:39:00,70.6,66.5,29.86,North,350,0.0,3.0,87,0.00,,,0.00,WeatherCatV1.21B27,2013-08-09 09:39:00,
2013-08-09 05:44:00,70.5,66.1,29.86,North,11,0.0,0.0,86,0.00,,,0.00,WeatherCatV1.21B27,2013-08-09 09:44:00,
2013-08-09 05:49:00,70.5,66.1,29.86,North,11,0.0,0.0,86,0.00,,,0.00,WeatherCatV1.21B27,2013-08-09 09:49:00,
2013-08-09 05:54:00,70.5,65.8,29.86,NNE,22,0.0,2.0,85,0.00,,,0.00,WeatherCatV1.21B27,2013-08-09 09:54:00,
2013-08-09 05:59:00,70.5,65.8,29.86,NNE,23,0.0,0.0,85,0.00,,,0.00,WeatherCatV1.21B27,2013-08-09 09:59:00,
2013-08-09 06:04:00,70.5,65.8,29.87,NNE,22,0.0,0.0,85,0.00,,,0.00,WeatherCatV1.21B27,2013-08-09 10:04:00,
2013-08-09 06:09:00,70.5,65.8,29.87,NNE,22,0.0,0.0,85,0.00,,,0.00,WeatherCatV1.21B27,2013-08-09 10:09:00,
2013-08-09 06:14:00,70.5,66.1,29.87,NNE,22,0.0,2.0,86,0.00,,,0.00,WeatherCatV1.21B27,2013-08-09 10:14:00,
2013-08-09 06:19:00,70.6,66.2,29.87,NNE,22,0.0,3.0,86,0.00,,,0.00,WeatherCatV1.21B27,2013-08-09 10:19:00,
2013-08-09 06:24:00,70.5,66.1,29.86,NNE,22,0.0,2.0,86,0.00,,,0.00,WeatherCatV1.21B27,2013-08-09 10:24:00,
2013-08-09 06:29:00,70.4,66.0,29.87,NNE,22,0.0,0.0,86,0.00,,,0.00,WeatherCatV1.21B27,2013-08-09 10:29:00,
2013-08-09 06:34:00,70.4,66.3,29.87,NNE,22,0.0,0.0,87,0.00,,,0.01,WeatherCatV1.21B27,2013-08-09 10:34:00,
2013-08-09 06:39:00,70.2,66.1,29.87,NNE,22,0.0,0.0,87,0.00,,,0.01,WeatherCatV1.21B27,2013-08-09 10:39:00,
2013-08-09 06:44:00,70.0,65.9,29.87,NNE,22,0.0,0.0,87,0.00,,,0.01,WeatherCatV1.21B27,2013-08-09 10:44:00,
2013-08-09 06:49:00,69.8,65.8,29.87,NNE,22,0.0,1.0,87,0.52,,,0.04,WeatherCatV1.21B27,2013-08-09 10:49:00,
2013-08-09 06:54:00,69.7,66.0,29.87,NNE,22,0.0,0.0,88,0.22,,,0.06,WeatherCatV1.21B27,2013-08-09 10:54:00,
2013-08-09 06:59:00,69.5,65.8,29.87,NNE,22,0.0,0.0,88,0.15,,,0.07,WeatherCatV1.21B27,2013-08-09 10:59:00,
2013-08-09 07:04:00,69.4,65.7,29.87,NNE,22,0.0,0.0,88,0.15,,,0.08,WeatherCatV1.21B27,2013-08-09 11:04:00,
2013-08-09 07:09:00,69.3,65.6,29.87,NNE,22,0.0,0.0,88,0.08,,,0.09,WeatherCatV1.21B27,2013-08-09 11:09:00,
2013-08-09 07:14:00,69.1,65.7,29.87,SW,226,0.0,0.0,89,0.08,,,0.09,WeatherCatV1.21B27,2013-08-09 11:14:00,
2013-08-09 07:19:00,69.0,65.6,29.87,NNW,337,0.0,0.0,89,0.05,,,0.09,WeatherCatV1.21B27,2013-08-09 11:19:00,
2013-08-09 07:24:00,68.9,65.5,29.87,NNW,337,0.0,0.0,89,0.04,,,0.09,WeatherCatV1.21B27,2013-08-09 11:24:00,
2013-08-09 07:29:00,68.9,65.5,29.87,NNW,337,0.0,0.0,89,0.00,,,0.09,WeatherCatV1.21B27,2013-08-09 11:29:00,
2013-08-09 07:34:00,68.8,65.4,29.88,NNW,337,0.0,0.0,89,0.00,,,0.09,WeatherCatV1.21B27,2013-08-09 11:34:00,
2013-08-09 07:39:00,68.8,65.4,29.88,NNW,337,0.0,0.0,89,0.00,,,0.09,WeatherCatV1.21B27,2013-08-09 11:39:00,
2013-08-09 07:44:00,68.7,65.6,29.88,NNW,337,0.0,0.0,90,0.00,,,0.09,WeatherCatV1.21B27,2013-08-09 11:44:00,
2013-08-09 07:49:00,68.7,65.6,29.88,NNW,337,0.0,0.0,90,0.00,,,0.09,WeatherCatV1.21B27,2013-08-09 11:49:00,
2013-08-09 07:54:00,68.7,65.6,29.88,NNW,337,0.0,0.0,90,0.00,,,0.10,WeatherCatV1.21B27,2013-08-09 11:54:00,
2013-08-09 07:59:00,68.7,65.6,29.88,NNW,337,0.0,0.0,90,0.00,,,0.10,WeatherCatV1.21B27,2013-08-09 11:59:00,
2013-08-09 08:04:00,68.7,65.6,29.88,NNW,337,0.0,0.0,90,0.00,,,0.10,WeatherCatV1.21B27,2013-08-09 12:04:00,
2013-08-09 08:09:00,68.7,65.6,29.88,NNW,337,0.0,0.0,90,0.00,,,0.10,WeatherCatV1.21B27,2013-08-09 12:09:00,
2013-08-09 08:14:00,68.7,65.6,29.88,NNW,337,0.0,0.0,90,0.00,,,0.10,WeatherCatV1.21B27,2013-08-09 12:14:00,
2013-08-09 08:19:00,68.6,65.5,29.89,NNE,26,0.0,2.0,90,0.00,,,0.10,WeatherCatV1.21B27,2013-08-09 12:19:00,
2013-08-09 08:24:00,68.5,65.4,29.89,NNE,26,0.0,0.0,90,0.00,,,0.10,WeatherCatV1.21B27,2013-08-09 12:24:00,
2013-08-09 08:29:00,68.5,65.4,29.88,NE,34,0.0,0.0,90,0.00,,,0.10,WeatherCatV1.21B27,2013-08-09 12:29:00,
2013-08-09 08:34:00,68.4,65.3,29.88,NE,34,1.0,1.0,90,0.00,,,0.10,WeatherCatV1.21B27,2013-08-09 12:34:00,
2013-08-09 08:39:00,68.3,65.2,29.88,NNE,33,0.0,0.0,90,0.00,,,0.10,WeatherCatV1.21B27,2013-08-09 12:39:00,
2013-08-09 08:44:00,68.2,65.2,29.88,NNE,33,0.0,0.0,90,0.00,,,0.10,WeatherCatV1.21B27,2013-08-09 12:44:00,
2013-08-09 08:49:00,68.2,65.2,29.88,NE,34,0.0,0.0,90,0.00,,,0.10,WeatherCatV1.21B27,2013-08-09 12:49:00,
2013-08-09 08:54:00,68.2,65.2,29.89,NNE,33,0.0,1.0,90,0.00,,,0.10,WeatherCatV1.21B27,2013-08-09 12:54:00,
2013-08-09 08:59:00,68.2,65.2,29.89,NNE,33,0.0,0.0,90,0.00,,,0.10,WeatherCatV1.21B27,2013-08-09 12:59:00,
2013-08-09 09:04:00,68.2,65.2,29.89,NNE,33,0.0,0.0,90,0.00,,,0.10,WeatherCatV1.21B27,2013-08-09 13:04:00,
2013-08-09 09:09:00,68.2,65.2,29.89,NE,34,0.0,0.0,90,0.00,,,0.10,WeatherCatV1.21B27,2013-08-09 13:09:00,
2013-08-09 09:14:00,68.2,65.2,29.89,NE,34,0.0,2.0,90,0.00,,,0.10,WeatherCatV1.21B27,2013-08-09 13:14:00,
2013-08-09 09:19:00,68.2,65.2,29.89,NNE,33,0.0,0.0,90,0.00,,,0.10,WeatherCatV1.21B27,2013-08-09 13:19:00,
2013-08-09 09:24:00,68.3,65.6,29.89,NE,34,0.0,0.0,91,0.00,,,0.10,WeatherCatV1.21B27,2013-08-09 13:24:00,
2013-08-09 09:29:00,68.2,65.2,29.89,NE,34,0.0,0.0,90,0.00,,,0.10,WeatherCatV1.21B27,2013-08-09 13:29:00,
2013-08-09 09:34:00,68.2,65.2,29.89,NE,34,0.0,0.0,90,0.00,,,0.10,WeatherCatV1.21B27,2013-08-09 13:34:00,
2013-08-09 09:39:00,68.4,65.7,29.90,NE,34,0.0,1.0,91,0.00,,,0.10,WeatherCatV1.21B27,2013-08-09 13:39:00,
2013-08-09 09:44:00,68.4,65.7,29.90,NE,34,0.0,0.0,91,0.00,,,0.10,WeatherCatV1.21B27,2013-08-09 13:44:00,
2013-08-09 09:49:00,68.6,65.9,29.90,NE,34,0.0,0.0,91,0.00,,,0.10,WeatherCatV1.21B27,2013-08-09 13:49:00,
2013-08-09 09:54:00,68.7,66.0,29.89,NNE,33,0.0,1.0,91,0.00,,,0.10,WeatherCatV1.21B27,2013-08-09 13:54:00,
2013-08-09 09:59:00,68.8,66.1,29.89,NE,34,1.0,2.0,91,0.00,,,0.10,WeatherCatV1.21B27,2013-08-09 13:59:00,
2013-08-09 10:04:00,68.9,65.8,29.89,NNE,26,1.0,5.0,90,0.00,,,0.10,WeatherCatV1.21B27,2013-08-09 14:04:00,
2013-08-09 10:09:00,68.8,65.7,29.89,NNE,24,0.0,0.0,90,0.00,,,0.10,WeatherCatV1.21B27,2013-08-09 14:09:00,
2013-08-09 10:14:00,68.8,65.7,29.90,NNE,13,0.0,0.0,90,0.00,,,0.10,WeatherCatV1.21B27,2013-08-09 14:14:00,
2013-08-09 10:19:00,68.9,65.8,29.90,NNE,13,0.0,0.0,90,0.00,,,0.10,WeatherCatV1.21B27,2013-08-09 14:19:00,
2013-08-09 10:24:00,68.9,65.8,29.90,NNE,13,0.0,0.0,90,0.00,,,0.10,WeatherCatV1.21B27,2013-08-09 14:24:00,
2013-08-09 10:29:00,68.9,65.8,29.90,NNE,13,0.0,0.0,90,0.00,,,0.10,WeatherCatV1.21B27,2013-08-09 14:29:00,
2013-08-09 10:34:00,68.8,65.4,29.90,NNE,13,0.0,0.0,89,0.00,,,0.10,WeatherCatV1.21B27,2013-08-09 14:34:00,
2013-08-09 10:39:00,68.8,65.4,29.91,NNE,13,0.0,0.0,89,0.00,,,0.10,WeatherCatV1.21B27,2013-08-09 14:39:00,
2013-08-09 10:44:00,68.8,65.4,29.91,NNE,13,0.0,0.0,89,0.00,,,0.10,WeatherCatV1.21B27,2013-08-09 14:44:00,
2013-08-09 10:49:00,68.8,65.4,29.90,North,5,0.0,0.0,89,0.00,,,0.10,WeatherCatV1.21B27,2013-08-09 14:49:00,
2013-08-09 10:54:00,68.8,65.4,29.91,North,5,0.0,2.0,89,0.00,,,0.10,WeatherCatV1.21B27,2013-08-09 14:54:00,
2013-08-09 10:59:00,69.0,65.6,29.90,North,5,0.0,0.0,89,0.00,,,0.10,WeatherCatV1.21B27,2013-08-09 14:59:00,
2013-08-09 11:04:00,69.4,66.0,29.91,North,5,0.0,0.0,89,0.00,,,0.10,WeatherCatV1.21B27,2013-08-09 15:04:00,
2013-08-09 11:09:00,69.9,66.2,29.91,ENE,57,0.0,3.0,88,0.00,,,0.10,WeatherCatV1.21B27,2013-08-09 15:09:00,
2013-08-09 11:14:00,70.0,65.9,29.91,NE,55,0.0,3.0,87,0.00,,,0.10,WeatherCatV1.21B27,2013-08-09 15:14:00,
2013-08-09 11:19:00,70.0,65.6,29.91,NNE,13,0.0,3.0,86,0.00,,,0.10,WeatherCatV1.21B27,2013-08-09 15:19:00,
2013-08-09 11:24:00,70.2,66.1,29.91,North,11,0.0,0.0,87,0.00,,,0.10,WeatherCatV1.21B27,2013-08-09 15:24:00,
2013-08-09 11:29:00,70.6,66.2,29.91,NNE,15,0.0,3.0,86,0.00,,,0.10,WeatherCatV1.21B27,2013-08-09 15:29:00,
2013-08-09 11:34:00,70.7,66.0,29.91,NNE,21,1.0,2.0,85,0.00,,,0.10,WeatherCatV1.21B27,2013-08-09 15:34:00,
2013-08-09 11:39:00,71.1,66.0,29.91,WNW,301,2.0,2.0,84,0.00,,,0.10,WeatherCatV1.21B27,2013-08-09 15:39:00,
2013-08-09 11:44:00,71.1,66.0,29.91,WSW,252,1.0,1.0,84,0.00,,,0.10,WeatherCatV1.21B27,2013-08-09 15:44:00,
2013-08-09 11:49:00,71.2,65.8,29.91,SW,217,0.0,1.0,83,0.00,,,0.10,WeatherCatV1.21B27,2013-08-09 15:49:00,
2013-08-09 11:55:00,73.4,68.9,29.91,NNE,22,1.0,1.0,86,0.00,,,0.11,WeatherCatV1.21B27,2013-08-09 15:55:00,
2013-08-09 11:59:00,73.3,66.4,29.91,NNE,14,0.0,4.0,79,0.00,,,0.11,WeatherCatV1.21B27,2013-08-09 15:59:00,
2013-08-09 12:04:00,72.7,66.2,29.91,WSW,257,0.0,1.0,80,0.00,,,0.11,WeatherCatV1.21B27,2013-08-09 16:04:00,
2013-08-09 12:09:00,72.3,66.1,29.91,WSW,246,0.0,2.0,81,0.00,,,0.11,WeatherCatV1.21B27,2013-08-09 16:09:00,
2013-08-09 12:14:00,72.7,66.2,29.91,NNW,337,0.0,2.0,80,0.00,,,0.11,WeatherCatV1.21B27,2013-08-09 16:14:00,
2013-08-09 12:19:00,73.6,67.4,29.92,North,349,0.0,2.0,81,0.00,,,0.11,WeatherCatV1.21B27,2013-08-09 16:19:00,
2013-08-09 12:24:00,73.6,67.8,29.91,North,0,0.0,3.0,82,0.00,,,0.11,WeatherCatV1.21B27,2013-08-09 16:24:00,
2013-08-09 12:29:00,72.8,64.4,29.92,SW,217,0.0,3.0,75,0.00,,,0.11,WeatherCatV1.21B27,2013-08-09 16:29:00,
2013-08-09 12:34:00,72.5,65.2,29.92,North,5,2.0,5.0,78,0.00,,,0.11,WeatherCatV1.21B27,2013-08-09 16:34:00,
2013-08-09 12:39:00,72.7,64.7,29.92,SW,222,1.0,4.0,76,0.00,,,0.11,WeatherCatV1.21B27,2013-08-09 16:39:00,
2013-08-09 12:44:00,72.1,64.8,29.92,SW,227,4.0,4.0,78,0.00,,,0.11,WeatherCatV1.21B27,2013-08-09 16:44:00,
2013-08-09 12:49:00,72.3,65.8,29.92,SSW,211,0.0,2.0,80,0.00,,,0.11,WeatherCatV1.21B27,2013-08-09 16:49:00,
2013-08-09 12:54:00,72.8,66.3,29.92,SW,222,1.0,2.0,80,0.00,,,0.11,WeatherCatV1.21B27,2013-08-09 16:54:00,
2013-08-09 12:59:00,72.0,64.4,29.92,SW,217,4.0,6.0,77,0.00,,,0.11,WeatherCatV1.21B27,2013-08-09 16:59:00,
2013-08-09 13:04:00,72.1,64.8,29.92,SW,230,1.0,2.0,78,0.00,,,0.11,WeatherCatV1.21B27,2013-08-09 17:04:00,
2013-08-09 13:09:00,73.1,65.1,29.92,SW,225,3.0,3.0,76,0.00,,,0.11,WeatherCatV1.21B27,2013-08-09 17:09:00,
2013-08-09 13:14:00,72.6,64.2,29.92,SW,222,0.0,3.0,75,0.00,,,0.11,WeatherCatV1.21B27,2013-08-09 17:14:00,
2013-08-09 13:19:00,73.0,64.6,29.92,WSW,244,2.0,2.0,75,0.00,,,0.11,WeatherCatV1.21B27,2013-08-09 17:19:00,
2013-08-09 13:24:00,72.8,65.5,29.92,SW,233,1.0,2.0,78,0.00,,,0.11,WeatherCatV1.21B27,2013-08-09 17:24:00,
2013-08-09 13:29:00,73.4,64.6,29.92,SW,232,2.0,3.0,74,0.00,,,0.11,WeatherCatV1.21B27,2013-08-09 17:29:00,
2013-08-09 13:34:00,72.7,64.7,29.92,SW,222,1.0,4.0,76,0.00,,,0.11,WeatherCatV1.21B27,2013-08-09 17:34:00,
2013-08-09 13:39:00,72.5,64.5,29.92,West,281,2.0,4.0,76,0.00,,,0.11,WeatherCatV1.21B27,2013-08-09 17:39:00,
2013-08-09 13:44:00,73.2,66.3,29.92,WNW,300,0.0,0.0,79,0.00,,,0.11,WeatherCatV1.21B27,2013-08-09 17:44:00,
2013-08-09 13:49:00,73.7,64.9,29.92,WSW,248,3.0,5.0,74,0.00,,,0.11,WeatherCatV1.21B27,2013-08-09 17:49:00,
2013-08-09 13:54:00,72.7,63.9,29.92,SW,233,3.0,7.0,74,0.00,,,0.11,WeatherCatV1.21B27,2013-08-09 17:54:00,
2013-08-09 13:59:00,72.8,66.3,29.92,NNE,24,9.0,9.0,80,0.00,,,0.11,WeatherCatV1.21B27,2013-08-09 17:59:00,
2013-08-09 14:04:00,73.3,64.5,29.92,West,268,2.0,4.0,74,0.00,,,0.11,WeatherCatV1.21B27,2013-08-09 18:04:00,
2013-08-09 14:09:00,73.1,64.3,29.92,SW,226,1.0,3.0,74,0.00,,,0.11,WeatherCatV1.21B27,2013-08-09 18:09:00,
2013-08-09 14:14:00,73.1,65.1,29.92,SW,215,2.0,2.0,76,0.00,,,0.11,WeatherCatV1.21B27,2013-08-09 18:14:00,
2013-08-09 14:19:00,73.4,65.4,29.92,WSW,250,0.0,4.0,76,0.00,,,0.11,WeatherCatV1.21B27,2013-08-09 18:19:00,
2013-08-09 14:24:00,73.2,65.5,29.92,SW,234,1.0,2.0,77,0.00,,,0.11,WeatherCatV1.21B27,2013-08-09 18:24:00,
2013-08-09 14:29:00,73.9,65.1,29.92,SW,223,3.0,4.0,74,0.00,,,0.11,WeatherCatV1.21B27,2013-08-09 18:29:00,
2013-08-09 14:34:00,73.1,63.9,29.92,SW,222,4.0,5.0,73,0.00,,,0.11,WeatherCatV1.21B27,2013-08-09 18:34:00,
2013-08-09 14:39:00,72.8,63.6,29.92,WSW,257,3.0,5.0,73,0.00,,,0.11,WeatherCatV1.21B27,2013-08-09 18:39:00,
2013-08-09 14:44:00,72.8,64.0,29.92,WNW,289,0.0,5.0,74,0.00,,,0.11,WeatherCatV1.21B27,2013-08-09 18:44:00,
2013-08-09 14:49:00,73.2,64.8,29.92,SW,219,3.0,4.0,75,0.00,,,0.11,WeatherCatV1.21B27,2013-08-09 18:49:00,
2013-08-09 14:54:00,72.9,63.3,29.92,SW,230,2.0,6.0,72,0.00,,,0.11,WeatherCatV1.21B27,2013-08-09 18:54:00,
2013-08-09 14:59:00,72.7,63.5,29.92,WSW,242,0.0,5.0,73,0.00,,,0.11,WeatherCatV1.21B27,2013-08-09 18:59:00,
2013-08-09 15:04:00,72.5,62.9,29.92,WNW,284,3.0,8.0,72,0.00,,,0.11,WeatherCatV1.21B27,2013-08-09 19:04:00,
2013-08-09 15:09:00,72.7,62.7,29.92,SSW,211,3.0,5.0,71,0.00,,,0.11,WeatherCatV1.21B27,2013-08-09 19:09:00,
2013-08-09 15:14:00,72.6,64.2,29.92,WSW,249,4.0,4.0,75,0.00,,,0.11,WeatherCatV1.21B27,2013-08-09 19:14:00,
2013-08-09 15:19:00,72.7,63.9,29.92,WSW,241,4.0,6.0,74,0.00,,,0.11,WeatherCatV1.21B27,2013-08-09 19:19:00,
2013-08-09 15:24:00,73.5,64.3,29.92,West,264,2.0,5.0,73,0.00,,,0.11,WeatherCatV1.21B27,2013-08-09 19:24:00,
2013-08-09 15:29:00,73.5,63.9,29.92,WSW,246,2.0,3.0,72,0.00,,,0.11,WeatherCatV1.21B27,2013-08-09 19:29:00,
2013-08-09 15:34:00,73.2,62.4,29.92,SW,235,0.0,4.0,69,0.00,,,0.11,WeatherCatV1.21B27,2013-08-09 19:34:00,
2013-08-09 15:39:00,73.3,62.1,29.92,SW,216,5.0,6.0,68,0.00,,,0.11,WeatherCatV1.21B27,2013-08-09 19:39:00,
2013-08-09 15:44:00,73.4,62.2,29.92,WNW,300,2.0,5.0,68,0.00,,,0.11,WeatherCatV1.21B27,2013-08-09 19:44:00,
2013-08-09 15:49:00,72.9,61.3,29.92,SW,221,5.0,5.0,67,0.00,,,0.11,WeatherCatV1.21B27,2013-08-09 19:49:00,
2013-08-09 15:54:00,73.1,61.0,29.93,West,275,1.0,6.0,66,0.00,,,0.11,WeatherCatV1.21B27,2013-08-09 19:54:00,
2013-08-09 15:59:00,73.0,61.4,29.93,SW,230,3.0,5.0,67,0.00,,,0.11,WeatherCatV1.21B27,2013-08-09 19:59:00,
2013-08-09 16:04:00,73.1,61.0,29.92,WSW,238,3.0,3.0,66,0.00,,,0.11,WeatherCatV1.21B27,2013-08-09 20:04:00,
2013-08-09 16:09:00,73.6,60.7,29.93,WNW,286,2.0,3.0,64,0.00,,,0.11,WeatherCatV1.21B27,2013-08-09 20:09:00,
2013-08-09 16:14:00,73.8,60.0,29.93,WNW,285,1.0,3.0,62,0.00,,,0.11,WeatherCatV1.21B27,2013-08-09 20:14:00,
2013-08-09 16:19:00,73.4,59.1,29.93,West,264,3.0,6.0,61,0.00,,,0.11,WeatherCatV1.21B27,2013-08-09 20:19:00,
2013-08-09 16:25:00,73.3,59.9,29.93,WSW,245,0.0,1.0,63,0.00,,,0.11,WeatherCatV1.21B27,2013-08-09 20:25:00,
2013-08-09 16:30:00,73.4,59.6,29.93,WNW,293,2.0,5.0,62,0.00,,,0.11,WeatherCatV1.21B27,2013-08-09 20:30:00,
2013-08-09 16:35:00,73.5,58.3,29.92,WSW,254,1.0,1.0,59,0.00,,,0.11,WeatherCatV1.21B27,2013-08-09 20:35:00,
2013-08-09 16:40:00,73.9,59.6,29.93,WSW,254,1.0,3.0,61,0.00,,,0.11,WeatherCatV1.21B27,2013-08-09 20:40:00,
2013-08-09 16:45:00,74.4,59.1,29.92,SW,232,0.0,3.0,59,0.00,,,0.11,WeatherCatV1.21B27,2013-08-09 20:45:00,
2013-08-09 16:50:00,74.7,58.4,29.92,WNW,283,2.0,4.0,57,0.00,,,0.11,WeatherCatV1.21B27,2013-08-09 20:50:00,
2013-08-09 16:55:00,74.4,57.2,29.92,SW,222,2.0,3.0,55,0.00,,,0.11,WeatherCatV1.21B27,2013-08-09 20:55:00,
2013-08-09 17:00:00,74.4,57.7,29.92,WSW,252,0.0,4.0,56,0.00,,,0.11,WeatherCatV1.21B27,2013-08-09 21:00:00,
2013-08-09 17:05:00,74.4,55.1,29.92,WSW,253,0.0,2.0,51,0.00,,,0.11,WeatherCatV1.21B27,2013-08-09 21:05:00,
2013-08-09 17:10:00,74.0,54.2,29.93,SW,222,3.0,5.0,50,0.00,,,0.11,WeatherCatV1.21B27,2013-08-09 21:10:00,
2013-08-09 17:15:00,74.0,56.3,29.92,West,260,1.0,6.0,54,0.00,,,0.11,WeatherCatV1.21B27,2013-08-09 21:15:00,
2013-08-09 17:20:00,74.2,54.9,29.93,SW,232,5.0,6.0,51,0.00,,,0.11,WeatherCatV1.21B27,2013-08-09 21:20:00,
2013-08-09 17:25:00,73.8,56.1,29.93,SW,221,2.0,4.0,54,0.00,,,0.11,WeatherCatV1.21B27,2013-08-09 21:25:00,
2013-08-09 17:30:00,74.2,57.5,29.93,WSW,238,3.0,4.0,56,0.00,,,0.11,WeatherCatV1.21B27,2013-08-09 21:30:00,
2013-08-09 17:36:00,73.9,56.2,29.93,SSW,211,0.0,4.0,54,0.00,,,0.11,WeatherCatV1.21B27,2013-08-09 21:36:00,
2013-08-09 17:41:00,73.9,55.7,29.93,West,268,4.0,4.0,53,0.00,,,0.11,WeatherCatV1.21B27,2013-08-09 21:41:00,
2013-08-09 17:46:00,74.2,54.9,29.93,West,276,2.0,3.0,51,0.00,,,0.11,WeatherCatV1.21B27,2013-08-09 21:46:00,
2013-08-09 17:51:00,74.7,55.9,29.93,West,273,2.0,2.0,52,0.00,,,0.11,WeatherCatV1.21B27,2013-08-09 21:51:00,
2013-08-09 17:56:00,74.8,54.9,29.93,West,260,0.0,2.0,50,0.00,,,0.11,WeatherCatV1.21B27,2013-08-09 21:56:00,
2013-08-09 18:01:00,74.9,54.4,29.93,West,268,3.0,4.0,49,0.00,,,0.11,WeatherCatV1.21B27,2013-08-09 22:01:00,
2013-08-09 18:06:00,74.7,54.8,29.93,SW,235,2.0,4.0,50,0.00,,,0.11,WeatherCatV1.21B27,2013-08-09 22:06:00,
2013-08-09 18:11:00,74.4,55.1,29.93,SW,228,0.0,3.0,51,0.00,,,0.11,WeatherCatV1.21B27,2013-08-09 22:11:00,
2013-08-09 18:16:00,74.4,55.1,29.93,WSW,244,2.0,4.0,51,0.00,,,0.11,WeatherCatV1.21B27,2013-08-09 22:16:00,
2013-08-09 18:21:00,74.0,54.2,29.93,WSW,257,1.0,6.0,50,0.00,,,0.11,WeatherCatV1.21B27,2013-08-09 22:21:00,
2013-08-09 18:26:00,74.0,56.8,29.92,WNW,286,1.0,3.0,55,0.00,,,0.11,WeatherCatV1.21B27,2013-08-09 22:26:00,
2013-08-09 18:31:00,74.4,57.2,29.92,SW,235,2.0,2.0,55,0.00,,,0.11,WeatherCatV1.21B27,2013-08-09 22:31:00,
2013-08-09 18:36:00,74.0,56.3,29.92,WSW,250,2.0,4.0,54,0.00,,,0.11,WeatherCatV1.21B27,2013-08-09 22:36:00,
2013-08-09 18:41:00,74.0,56.8,29.92,WSW,238,3.0,5.0,55,0.00,,,0.11,WeatherCatV1.21B27,2013-08-09 22:41:00,
2013-08-09 18:46:00,73.8,57.1,29.92,SW,215,0.0,3.0,56,0.00,,,0.11,WeatherCatV1.21B27,2013-08-09 22:46:00,
2013-08-09 18:51:00,73.8,56.1,29.92,West,261,3.0,4.0,54,0.00,,,0.11,WeatherCatV1.21B27,2013-08-09 22:51:00,
2013-08-09 18:56:00,73.7,56.5,29.92,SSW,211,0.0,0.0,55,0.00,,,0.11,WeatherCatV1.21B27,2013-08-09 22:56:00,
2013-08-09 19:01:00,73.9,56.2,29.92,West,261,0.0,3.0,54,0.00,,,0.11,WeatherCatV1.21B27,2013-08-09 23:01:00,
2013-08-09 19:06:00,73.9,56.2,29.92,West,261,0.0,0.0,54,0.00,,,0.11,WeatherCatV1.21B27,2013-08-09 23:06:00,
2013-08-09 19:11:00,73.8,56.6,29.92,West,262,0.0,1.0,55,0.00,,,0.11,WeatherCatV1.21B27,2013-08-09 23:11:00,
2013-08-09 19:16:00,73.8,56.1,29.92,West,262,0.0,1.0,54,0.00,,,0.11,WeatherCatV1.21B27,2013-08-09 23:16:00,
2013-08-09 19:21:00,73.9,56.2,29.93,West,262,2.0,2.0,54,0.00,,,0.11,WeatherCatV1.21B27,2013-08-09 23:21:00,
2013-08-09 19:26:00,74.0,56.3,29.93,West,262,1.0,2.0,54,0.00,,,0.11,WeatherCatV1.21B27,2013-08-09 23:26:00,
2013-08-09 19:31:00,73.7,57.0,29.93,West,262,0.0,0.0,56,0.00,,,0.11,WeatherCatV1.21B27,2013-08-09 23:31:00,
2013-08-09 19:36:00,73.1,58.4,29.93,West,261,0.0,0.0,60,0.00,,,0.11,WeatherCatV1.21B27,2013-08-09 23:36:00,
2013-08-09 19:41:00,72.4,57.7,29.93,West,261,0.0,0.0,60,0.00,,,0.11,WeatherCatV1.21B27,2013-08-09 23:41:00,
2013-08-09 19:46:00,71.9,58.6,29.94,West,262,0.0,0.0,63,0.00,,,0.11,WeatherCatV1.21B27,2013-08-09 23:46:00,
2013-08-09 19:51:00,71.4,59.0,29.94,West,262,0.0,0.0,65,0.00,,,0.11,WeatherCatV1.21B27,2013-08-09 23:51:00,
2013-08-09 19:56:00,70.9,59.0,29.94,West,261,0.0,0.0,66,0.00,,,0.11,WeatherCatV1.21B27,2013-08-09 23:56:00,
2013-08-09 20:01:00,70.3,58.4,29.94,West,261,0.0,0.0,66,0.00,,,0.11,WeatherCatV1.21B27,2013-08-10 00:01:00,
2013-08-09 20:06:00,69.9,58.8,29.94,West,262,0.0,0.0,68,0.00,,,0.11,WeatherCatV1.21B27,2013-08-10 00:06:00,
2013-08-09 20:11:00,69.5,58.9,29.94,West,262,0.0,0.0,69,0.00,,,0.11,WeatherCatV1.21B27,2013-08-10 00:11:00,
2013-08-09 20:16:00,69.0,58.4,29.94,West,261,0.0,0.0,69,0.00,,,0.11,WeatherCatV1.21B27,2013-08-10 00:16:00,
2013-08-09 20:21:00,68.4,58.2,29.95,West,261,0.0,0.0,70,0.00,,,0.11,WeatherCatV1.21B27,2013-08-10 00:21:00,
2013-08-09 20:27:00,68.0,58.2,29.95,West,262,0.0,0.0,71,0.00,,,0.11,WeatherCatV1.21B27,2013-08-10 00:27:00,
2013-08-09 20:32:00,67.7,58.7,29.95,West,262,0.0,0.0,73,0.00,,,0.11,WeatherCatV1.21B27,2013-08-10 00:32:00,
2013-08-09 20:37:00,67.5,58.5,29.94,West,261,0.0,0.0,73,0.00,,,0.11,WeatherCatV1.21B27,2013-08-10 00:37:00,
2013-08-09 20:42:00,67.1,58.5,29.95,West,262,0.0,0.0,74,0.00,,,0.11,WeatherCatV1.21B27,2013-08-10 00:42:00,
2013-08-09 20:47:00,66.9,59.1,29.95,West,262,0.0,0.0,76,0.00,,,0.11,WeatherCatV1.21B27,2013-08-10 00:47:00,
2013-08-09 20:52:00,66.5,59.1,29.95,West,261,0.0,0.0,77,0.00,,,0.11,WeatherCatV1.21B27,2013-08-10 00:52:00,
2013-08-09 20:57:00,66.1,58.3,29.95,West,261,0.0,0.0,76,0.00,,,0.11,WeatherCatV1.21B27,2013-08-10 00:57:00,
2013-08-09 21:02:00,65.8,58.0,29.95,West,261,0.0,0.0,76,0.00,,,0.11,WeatherCatV1.21B27,2013-08-10 01:02:00,
2013-08-09 21:07:00,65.6,58.5,29.95,West,262,0.0,0.0,78,0.00,,,0.11,WeatherCatV1.21B27,2013-08-10 01:07:00,
2013-08-09 21:12:00,65.5,58.8,29.96,West,262,0.0,0.0,79,0.00,,,0.11,WeatherCatV1.21B27,2013-08-10 01:12:00,
2013-08-09 21:17:00,65.3,58.6,29.96,West,261,0.0,0.0,79,0.00,,,0.11,WeatherCatV1.21B27,2013-08-10 01:17:00,
2013-08-09 21:22:00,65.1,58.4,29.96,West,262,0.0,0.0,79,0.00,,,0.11,WeatherCatV1.21B27,2013-08-10 01:22:00,
2013-08-09 21:27:00,64.8,58.5,29.96,West,262,0.0,0.0,80,0.00,,,0.11,WeatherCatV1.21B27,2013-08-10 01:27:00,
2013-08-09 21:32:00,64.5,58.2,29.97,West,262,0.0,0.0,80,0.00,,,0.11,WeatherCatV1.21B27,2013-08-10 01:32:00,
2013-08-09 21:37:00,64.4,58.1,29.97,West,261,0.0,0.0,80,0.00,,,0.11,WeatherCatV1.21B27,2013-08-10 01:37:00,
2013-08-09 21:42:00,64.4,58.8,29.97,West,262,0.0,0.0,82,0.00,,,0.11,WeatherCatV1.21B27,2013-08-10 01:42:00,
2013-08-09 21:47:00,64.1,58.1,29.97,West,262,0.0,0.0,81,0.00,,,0.11,WeatherCatV1.21B27,2013-08-10 01:47:00,
2013-08-09 21:52:00,63.9,58.0,29.97,West,261,0.0,0.0,81,0.00,,,0.11,WeatherCatV1.21B27,2013-08-10 01:52:00,
2013-08-09 21:57:00,63.8,57.8,29.97,West,262,0.0,0.0,81,0.00,,,0.11,WeatherCatV1.21B27,2013-08-10 01:57:00,
2013-08-09 22:02:00,63.7,57.8,29.97,West,262,0.0,0.0,81,0.00,,,0.11,WeatherCatV1.21B27,2013-08-10 02:02:00,
2013-08-09 22:07:00,63.6,58.0,29.97,West,262,0.0,0.0,82,0.00,,,0.11,WeatherCatV1.21B27,2013-08-10 02:07:00,
2013-08-09 22:12:00,63.5,57.9,29.97,West,262,0.0,0.0,82,0.00,,,0.11,WeatherCatV1.21B27,2013-08-10 02:12:00,
2013-08-09 22:17:00,63.5,57.9,29.97,West,262,0.0,0.0,82,0.00,,,0.11,WeatherCatV1.21B27,2013-08-10 02:17:00,
2013-08-09 22:22:00,63.5,58.2,29.97,West,262,0.0,0.0,83,0.00,,,0.11,WeatherCatV1.21B27,2013-08-10 02:22:00,
2013-08-09 22:27:00,63.4,58.1,29.97,West,261,0.0,0.0,83,0.00,,,0.11,WeatherCatV1.21B27,2013-08-10 02:27:00,
2013-08-09 22:32:00,63.3,58.0,29.97,West,261,0.0,0.0,83,0.00,,,0.11,WeatherCatV1.21B27,2013-08-10 02:32:00,
2013-08-09 22:37:00,63.2,58.3,29.97,West,262,0.0,0.0,84,0.00,,,0.11,WeatherCatV1.21B27,2013-08-10 02:37:00,
2013-08-09 22:42:00,63.0,57.8,29.97,West,262,0.0,0.0,83,0.00,,,0.11,WeatherCatV1.21B27,2013-08-10 02:42:00,
2013-08-09 22:47:00,63.0,58.1,29.97,West,262,0.0,0.0,84,0.00,,,0.11,WeatherCatV1.21B27,2013-08-10 02:47:00,
2013-08-09 22:52:00,62.9,58.0,29.97,West,262,0.0,0.0,84,0.00,,,0.11,WeatherCatV1.21B27,2013-08-10 02:52:00,
2013-08-09 22:57:00,62.8,57.9,29.97,West,262,0.0,0.0,84,0.00,,,0.11,WeatherCatV1.21B27,2013-08-10 02:57:00,
2013-08-09 23:02:00,62.7,57.8,29.97,West,261,0.0,0.0,84,0.00,,,0.11,WeatherCatV1.21B27,2013-08-10 03:02:00,
2013-08-09 23:07:00,62.7,58.1,29.97,West,262,0.0,0.0,85,0.00,,,0.11,WeatherCatV1.21B27,2013-08-10 03:07:00,
2013-08-09 23:12:00,62.6,57.7,29.97,West,262,0.0,0.0,84,0.00,,,0.11,WeatherCatV1.21B27,2013-08-10 03:12:00,
2013-08-09 23:17:00,62.5,57.6,29.97,West,262,0.0,0.0,84,0.00,,,0.11,WeatherCatV1.21B27,2013-08-10 03:17:00,
2013-08-09 23:22:00,62.5,57.6,29.97,West,262,0.0,0.0,84,0.00,,,0.11,WeatherCatV1.21B27,2013-08-10 03:22:00,
2013-08-09 23:27:00,62.5,57.9,29.98,West,261,0.0,0.0,85,0.00,,,0.11,WeatherCatV1.21B27,2013-08-10 03:27:00,
2013-08-09 23:32:00,62.5,57.9,29.98,West,262,0.0,0.0,85,0.00,,,0.11,WeatherCatV1.21B27,2013-08-10 03:32:00,
2013-08-09 23:37:00,62.5,57.9,29.98,West,261,0.0,0.0,85,0.00,,,0.11,WeatherCatV1.21B27,2013-08-10 03:37:00,
2013-08-09 23:42:00,62.4,57.8,29.98,West,262,0.0,0.0,85,0.00,,,0.11,WeatherCatV1.21B27,2013-08-10 03:42:00,
2013-08-09 23:47:00,62.4,57.8,29.97,West,262,0.0,0.0,85,0.00,,,0.11,WeatherCatV1.21B27,2013-08-10 03:47:00,
2013-08-09 23:52:00,62.4,57.8,29.97,West,262,0.0,0.0,85,0.00,,,0.11,WeatherCatV1.21B27,2013-08-10 03:52:00,
2013-08-09 23:57:00,62.4,57.8,29.98,West,262,0.0,0.0,85,0.00,,,0.11,WeatherCatV1.21B27,2013-08-10 03:57:00,